createdAt,value
2018-07-31T00:01:18.529Z,16.10
2018-07-31T00:03:49.851Z,14.60
2018-07-31T00:06:24.769Z,13.50
2018-07-31T00:08:56.996Z,17.33
2018-07-31T00:11:28.456Z,13.60
2018-07-31T00:13:59.644Z,18.10
2018-07-31T00:16:30.846Z,13.47
2018-07-31T00:19:01.747Z,13.67
2018-07-31T00:21:33.599Z,16.03
2018-07-31T00:24:04.827Z,13.60
2018-07-31T00:26:36.213Z,12.73
2018-07-31T00:29:07.669Z,13.90
2018-07-31T00:31:38.808Z,18.90
2018-07-31T00:34:10.191Z,15.20
2018-07-31T00:36:43.006Z,14.40
2018-07-31T00:39:14.182Z,13.97
2018-07-31T00:41:45.143Z,13.70
2018-07-31T00:44:16.424Z,12.40
2018-07-31T00:46:47.396Z,12.60
2018-07-31T00:49:20.124Z,11.47
2018-07-31T00:51:53.091Z,12.07
2018-07-31T00:54:24.301Z,13.30
2018-07-31T00:56:56.210Z,16.20
2018-07-31T00:59:27.312Z,14.33
2018-07-31T01:01:58.320Z,13.70
2018-07-31T01:04:29.491Z,13.47
2018-07-31T01:07:00.571Z,13.80
2018-07-31T01:09:31.583Z,14.00
2018-07-31T01:12:02.650Z,14.60
2018-07-31T01:14:33.809Z,12.60
2018-07-31T01:17:05.248Z,12.50
2018-07-31T01:19:36.205Z,11.73
2018-07-31T01:22:08.253Z,13.10
2018-07-31T01:24:39.128Z,12.43
2018-07-31T01:27:10.400Z,12.23
2018-07-31T01:29:41.489Z,14.03
2018-07-31T01:32:13.452Z,12.30
2018-07-31T01:34:44.372Z,11.90
2018-07-31T01:37:15.307Z,12.07
2018-07-31T01:39:46.317Z,11.53
2018-07-31T01:42:17.568Z,11.20
2018-07-31T01:44:48.745Z,10.43
2018-07-31T01:47:19.919Z,10.43
2018-07-31T01:49:51.028Z,10.87
2018-07-31T01:52:22.187Z,12.07
2018-07-31T01:54:53.514Z,11.37
2018-07-31T01:57:24.707Z,10.67
2018-07-31T01:59:55.673Z,10.57
2018-07-31T02:02:28.613Z,11.70
2018-07-31T02:04:59.493Z,10.30
2018-07-31T02:07:30.709Z,12.87
2018-07-31T02:10:01.868Z,11.20
2018-07-31T02:12:32.958Z,11.77
2018-07-31T02:15:04.117Z,11.60
2018-07-31T02:17:35.253Z,10.53
2018-07-31T02:20:06.743Z,11.67
2018-07-31T02:22:39.731Z,9.63
2018-07-31T02:25:10.808Z,12.87
2018-07-31T02:27:41.932Z,10.57
2018-07-31T02:30:18.547Z,10.20
2018-07-31T02:32:49.867Z,11.00
2018-07-31T02:35:20.867Z,10.03
2018-07-31T02:37:52.216Z,10.50
2018-07-31T02:40:23.266Z,11.37
2018-07-31T02:42:54.273Z,8.33
2018-07-31T02:45:25.366Z,9.30
2018-07-31T02:47:56.506Z,7.97
2018-07-31T02:50:28.376Z,8.30
2018-07-31T02:53:01.114Z,8.23
2018-07-31T02:55:32.175Z,7.73
2018-07-31T02:58:03.188Z,8.40
2018-07-31T03:00:34.340Z,8.07
2018-07-31T03:03:05.421Z,8.30
2018-07-31T03:05:37.309Z,22.53
2018-07-31T03:08:08.579Z,8.70
2018-07-31T03:10:39.803Z,10.40
2018-07-31T03:13:10.981Z,8.47
2018-07-31T03:15:44.823Z,9.37
2018-07-31T03:18:16.803Z,11.90
2018-07-31T03:20:48.957Z,9.73
2018-07-31T03:23:20.887Z,7.87
2018-07-31T03:25:52.134Z,8.00
2018-07-31T03:28:24.343Z,7.60
2018-07-31T03:30:55.408Z,7.13
2018-07-31T03:33:26.607Z,6.27
2018-07-31T03:35:57.844Z,6.87
2018-07-31T03:38:28.984Z,6.70
2018-07-31T03:41:00.106Z,7.37
2018-07-31T03:43:31.311Z,7.03
2018-07-31T03:46:03.278Z,6.40
2018-07-31T03:48:35.448Z,6.10
2018-07-31T03:51:06.946Z,5.90
2018-07-31T03:53:39.713Z,6.20
2018-07-31T03:56:10.954Z,5.90
2018-07-31T03:58:42.732Z,6.17
2018-07-31T04:01:13.775Z,11.67
2018-07-31T04:03:44.917Z,6.30
2018-07-31T04:06:15.853Z,6.73
2018-07-31T04:08:47.931Z,5.60
2018-07-31T04:11:19.297Z,6.90
2018-07-31T04:13:50.283Z,6.80
2018-07-31T04:16:21.364Z,6.93
2018-07-31T04:18:52.675Z,6.63
2018-07-31T04:21:23.900Z,8.70
2018-07-31T04:23:55.148Z,7.73
2018-07-31T04:26:26.256Z,6.87
2018-07-31T04:28:57.339Z,7.27
2018-07-31T04:31:28.521Z,8.40
2018-07-31T04:33:59.635Z,6.97
2018-07-31T04:36:30.802Z,7.27
2018-07-31T04:39:01.885Z,7.97
2018-07-31T04:41:33.484Z,8.50
2018-07-31T04:44:04.718Z,9.23
2018-07-31T04:46:35.835Z,8.17
2018-07-31T04:49:06.813Z,9.30
2018-07-31T04:51:37.825Z,8.30
2018-07-31T04:54:08.916Z,9.33
2018-07-31T04:56:40.142Z,9.13
2018-07-31T04:59:11.623Z,9.03
2018-07-31T05:01:42.568Z,10.50
2018-07-31T05:04:13.799Z,9.80
2018-07-31T05:06:44.823Z,11.17
2018-07-31T05:09:15.867Z,12.47
2018-07-31T05:11:46.889Z,10.40
2018-07-31T05:14:17.914Z,9.87
2018-07-31T05:16:48.798Z,10.13
2018-07-31T05:19:19.884Z,11.27
2018-07-31T05:21:51.310Z,11.37
2018-07-31T05:24:22.571Z,10.90
2018-07-31T05:26:53.687Z,10.80
2018-07-31T05:29:24.627Z,9.70
2018-07-31T05:31:55.548Z,9.53
2018-07-31T05:34:26.653Z,9.97
2018-07-31T05:36:58.927Z,10.80
2018-07-31T05:39:30.897Z,10.93
2018-07-31T05:42:02.474Z,10.33
2018-07-31T05:44:33.477Z,10.70
2018-07-31T05:47:04.490Z,11.20
2018-07-31T05:49:35.843Z,10.00
2018-07-31T05:52:07.358Z,10.00
2018-07-31T05:54:39.102Z,10.70
2018-07-31T05:57:10.670Z,17.23
2018-07-31T05:59:42.185Z,10.83
2018-07-31T06:02:13.492Z,12.70
2018-07-31T06:04:44.646Z,12.60
2018-07-31T06:07:16.535Z,12.90
2018-07-31T06:09:47.920Z,13.43
2018-07-31T06:12:19.160Z,13.50
2018-07-31T06:14:50.381Z,12.90
2018-07-31T06:17:22.607Z,12.37
2018-07-31T06:19:53.894Z,13.33
2018-07-31T06:22:25.117Z,17.40
2018-07-31T06:25:05.828Z,12.13
2018-07-31T06:27:38.335Z,12.33
2018-07-31T06:30:12.345Z,11.63
2018-07-31T06:32:44.139Z,18.67
2018-07-31T06:35:15.397Z,11.37
2018-07-31T06:37:47.703Z,10.87
2018-07-31T06:40:20.484Z,12.40
2018-07-31T06:42:51.829Z,16.23
2018-07-31T06:45:23.715Z,10.37
2018-07-31T06:47:54.911Z,12.50
2018-07-31T06:50:26.005Z,10.03
2018-07-31T06:52:58.144Z,11.20
2018-07-31T06:55:29.236Z,11.10
2018-07-31T06:58:00.617Z,11.00
2018-07-31T07:00:31.999Z,10.30
2018-07-31T07:03:04.624Z,11.00
2018-07-31T07:05:36.697Z,13.60
2018-07-31T07:08:07.989Z,14.93
2018-07-31T07:10:39.172Z,10.27
2018-07-31T07:13:12.172Z,9.80
2018-07-31T07:15:43.758Z,10.40
2018-07-31T07:18:16.932Z,10.30
2018-07-31T07:20:48.358Z,17.00
2018-07-31T07:23:20.097Z,8.93
2018-07-31T07:25:52.753Z,9.50
2018-07-31T07:28:24.007Z,10.10
2018-07-31T07:30:55.076Z,10.03
2018-07-31T07:33:26.237Z,11.57
2018-07-31T07:35:57.671Z,11.93
2018-07-31T07:38:28.806Z,10.20
2018-07-31T07:40:59.948Z,11.57
2018-07-31T07:43:31.376Z,10.77
2018-07-31T07:46:02.652Z,12.53
2018-07-31T07:48:33.726Z,12.20
2018-07-31T07:51:05.538Z,10.50
2018-07-31T07:53:36.565Z,10.90
2018-07-31T07:56:07.707Z,12.13
2018-07-31T07:58:38.791Z,11.57
2018-07-31T08:01:09.867Z,12.53
2018-07-31T08:03:41.082Z,13.23
2018-07-31T08:06:12.690Z,12.37
2018-07-31T08:08:44.075Z,11.17
2018-07-31T08:11:15.153Z,10.23
2018-07-31T08:13:46.221Z,11.70
2018-07-31T08:16:17.360Z,11.20
2018-07-31T08:18:48.680Z,12.50
2018-07-31T08:21:20.474Z,11.77
2018-07-31T08:23:55.279Z,12.23
2018-07-31T08:26:28.477Z,12.80
2018-07-31T08:28:59.544Z,12.47
2018-07-31T08:31:31.540Z,12.57
2018-07-31T08:34:03.344Z,14.03
2018-07-31T08:36:34.633Z,13.00
2018-07-31T08:39:07.398Z,14.13
2018-07-31T08:41:38.905Z,12.47
2018-07-31T08:44:10.124Z,12.70
2018-07-31T08:46:41.213Z,11.10
2018-07-31T08:49:12.292Z,11.53
2018-07-31T08:51:43.379Z,12.40
2018-07-31T08:54:16.840Z,12.20
2018-07-31T08:56:50.233Z,12.43
2018-07-31T08:59:21.371Z,12.77
2018-07-31T09:01:55.544Z,12.77
2018-07-31T09:04:26.634Z,12.97
2018-07-31T09:06:58.067Z,12.93
2018-07-31T09:09:29.126Z,11.93
2018-07-31T09:12:00.137Z,12.90
2018-07-31T09:14:31.374Z,13.40
2018-07-31T09:17:02.613Z,12.37
2018-07-31T09:19:33.584Z,12.00
2018-07-31T09:22:05.782Z,13.37
2018-07-31T09:24:36.901Z,12.80
2018-07-31T09:27:08.193Z,13.50
2018-07-31T09:29:39.361Z,13.33
2018-07-31T09:32:10.442Z,11.50
2018-07-31T09:34:47.954Z,11.93
2018-07-31T09:37:19.736Z,13.53
2018-07-31T09:39:50.856Z,11.53
2018-07-31T09:42:24.585Z,11.87
2018-07-31T09:44:56.006Z,13.17
2018-07-31T09:47:29.576Z,11.50
2018-07-31T09:50:01.892Z,12.40
2018-07-31T09:52:33.096Z,12.23
2018-07-31T09:55:05.132Z,13.80
2018-07-31T09:57:38.779Z,14.47
2018-07-31T10:00:10.074Z,13.50
2018-07-31T10:02:41.150Z,11.63
2018-07-31T10:05:12.279Z,11.40
2018-07-31T10:07:43.374Z,11.60
2018-07-31T10:10:15.109Z,12.23
2018-07-31T10:12:46.047Z,11.77
2018-07-31T10:15:17.464Z,11.77
2018-07-31T10:17:48.737Z,11.00
2018-07-31T10:20:19.619Z,12.20
2018-07-31T10:22:51.628Z,11.10
2018-07-31T10:25:22.984Z,12.30
2018-07-31T10:27:54.026Z,10.50
2018-07-31T10:30:25.030Z,12.23
2018-07-31T10:32:56.031Z,11.10
2018-07-31T10:35:27.608Z,11.90
2018-07-31T10:37:58.789Z,12.30
2018-07-31T10:40:29.885Z,11.40
2018-07-31T10:43:01.028Z,11.53
2018-07-31T10:45:32.087Z,10.93
2018-07-31T10:48:04.163Z,10.20
2018-07-31T10:50:35.319Z,10.60
2018-07-31T10:53:06.313Z,10.80
2018-07-31T10:55:37.704Z,10.67
2018-07-31T10:58:08.676Z,10.10
2018-07-31T11:00:39.990Z,10.30
2018-07-31T11:03:11.409Z,10.67
2018-07-31T11:05:43.183Z,9.57
2018-07-31T11:08:14.603Z,9.67
2018-07-31T11:10:46.522Z,9.93
2018-07-31T11:13:17.553Z,15.30
2018-07-31T11:15:52.646Z,10.70
2018-07-31T11:18:23.741Z,9.63
2018-07-31T11:20:55.109Z,9.90
2018-07-31T11:23:26.196Z,9.50
2018-07-31T11:25:58.019Z,11.30
2018-07-31T11:28:31.660Z,9.77
2018-07-31T11:31:03.772Z,10.53
2018-07-31T11:33:35.101Z,12.00
2018-07-31T11:36:06.444Z,9.60
2018-07-31T11:38:37.626Z,10.40
2018-07-31T11:41:08.624Z,9.20
2018-07-31T11:43:40.096Z,9.70
2018-07-31T11:46:11.977Z,10.70
2018-07-31T11:48:43.089Z,8.40
2018-07-31T11:51:14.035Z,10.33
2018-07-31T11:53:45.056Z,9.53
2018-07-31T11:56:16.106Z,9.70
2018-07-31T11:58:49.005Z,10.23
2018-07-31T12:01:19.964Z,11.53
2018-07-31T12:03:51.160Z,9.40
2018-07-31T12:06:22.492Z,9.20
2018-07-31T12:08:53.894Z,9.50
2018-07-31T12:11:26.479Z,10.47
2018-07-31T12:13:58.265Z,8.97
2018-07-31T12:16:29.749Z,9.87
2018-07-31T12:19:02.633Z,11.07
2018-07-31T12:21:34.757Z,9.63
2018-07-31T12:24:05.782Z,10.00
2018-07-31T12:26:37.068Z,9.50
2018-07-31T12:29:08.201Z,10.17
2018-07-31T12:31:39.569Z,10.70
2018-07-31T12:34:11.520Z,10.33
2018-07-31T12:36:45.739Z,11.17
2018-07-31T12:39:16.923Z,8.50
2018-07-31T12:41:49.882Z,9.27
2018-07-31T12:44:21.988Z,9.40
2018-07-31T12:46:53.449Z,10.67
2018-07-31T12:49:24.671Z,9.57
2018-07-31T12:51:55.612Z,8.90
2018-07-31T12:54:26.731Z,8.70
2018-07-31T12:56:58.604Z,9.17
2018-07-31T12:59:31.747Z,10.27
2018-07-31T13:02:02.617Z,9.97
2018-07-31T13:04:33.770Z,9.47
2018-07-31T13:07:04.892Z,9.83
2018-07-31T13:09:37.334Z,9.07
2018-07-31T13:12:08.390Z,9.27
2018-07-31T13:14:39.886Z,9.87
2018-07-31T13:17:11.090Z,9.50
2018-07-31T13:19:42.772Z,9.43
2018-07-31T13:22:14.736Z,9.17
2018-07-31T13:24:45.706Z,9.53
2018-07-31T13:27:16.616Z,10.00
2018-07-31T13:29:48.750Z,10.93
2018-07-31T13:32:20.733Z,12.70
2018-07-31T13:34:52.045Z,9.50
2018-07-31T13:37:23.067Z,9.20
2018-07-31T13:39:54.800Z,8.93
2018-07-31T13:42:25.588Z,12.67
2018-07-31T13:44:57.131Z,9.60
2018-07-31T13:47:28.485Z,9.83
2018-07-31T13:49:59.188Z,9.70
2018-07-31T13:52:30.206Z,9.77
2018-07-31T13:55:02.197Z,9.30
2018-07-31T13:57:32.960Z,10.87
2018-07-31T14:00:05.639Z,10.70
2018-07-31T14:02:36.538Z,9.50
2018-07-31T14:05:07.563Z,9.10
2018-07-31T14:07:38.340Z,10.77
2018-07-31T14:10:09.085Z,10.30
2018-07-31T14:12:39.908Z,8.97
2018-07-31T14:15:12.070Z,8.63
2018-07-31T14:17:43.335Z,9.80
2018-07-31T14:20:15.273Z,8.97
2018-07-31T14:22:46.290Z,8.53
2018-07-31T14:25:17.470Z,9.97
2018-07-31T14:27:48.244Z,8.83
2018-07-31T14:30:19.091Z,14.33
2018-07-31T14:32:50.226Z,9.27
2018-07-31T14:35:21.192Z,8.30
2018-07-31T14:37:52.515Z,9.30
2018-07-31T14:40:24.219Z,11.60
2018-07-31T14:42:54.897Z,9.57
2018-07-31T14:45:25.587Z,9.50
2018-07-31T14:47:56.603Z,9.00
2018-07-31T14:50:27.649Z,9.77
2018-07-31T14:52:58.798Z,9.10
2018-07-31T14:55:29.886Z,9.10
2018-07-31T14:58:00.650Z,9.07
2018-07-31T15:00:32.975Z,9.87
2018-07-31T15:03:03.749Z,9.47
2018-07-31T15:05:34.844Z,13.63
2018-07-31T15:08:05.671Z,10.03
2018-07-31T15:10:36.555Z,8.20
2018-07-31T15:13:07.335Z,9.40
2018-07-31T15:15:38.220Z,17.90
2018-07-31T15:18:09.154Z,8.70
2018-07-31T15:20:46.896Z,11.53
2018-07-31T15:23:24.680Z,23.47
2018-07-31T15:25:56.262Z,13.90
2018-07-31T15:28:27.137Z,9.40
2018-07-31T15:30:58.496Z,14.30
2018-07-31T15:33:30.188Z,10.40
2018-07-31T15:36:01.106Z,13.87
2018-07-31T15:38:31.880Z,11.20
2018-07-31T15:41:02.640Z,8.67
2018-07-31T15:43:34.497Z,8.90
2018-07-31T15:46:05.419Z,9.13
2018-07-31T15:48:36.185Z,8.87
2018-07-31T15:51:07.911Z,11.43
2018-07-31T15:53:38.804Z,9.53
2018-07-31T15:56:10.392Z,8.43
2018-07-31T15:58:41.558Z,8.53
2018-07-31T16:01:13.688Z,9.10
2018-07-31T16:03:45.373Z,9.70
2018-07-31T16:06:16.414Z,8.57
2018-07-31T16:08:48.234Z,9.37
2018-07-31T16:11:19.143Z,8.60
2018-07-31T16:13:49.960Z,10.73
2018-07-31T16:16:21.071Z,9.80
2018-07-31T16:18:52.445Z,9.07
2018-07-31T16:21:23.137Z,9.23
2018-07-31T16:23:59.474Z,9.97
2018-07-31T16:26:30.264Z,9.40
2018-07-31T16:29:02.171Z,11.67
2018-07-31T16:31:32.931Z,8.70
2018-07-31T16:34:04.223Z,9.73
2018-07-31T16:36:34.935Z,9.53
2018-07-31T16:39:08.298Z,10.07
2018-07-31T16:41:39.283Z,9.50
2018-07-31T16:44:16.770Z,10.10
2018-07-31T16:46:47.636Z,11.50
2018-07-31T16:49:19.005Z,9.20
2018-07-31T16:51:49.846Z,9.10
2018-07-31T16:54:20.935Z,11.03
2018-07-31T16:56:52.657Z,11.03
2018-07-31T16:59:23.377Z,10.50
2018-07-31T17:01:54.231Z,18.00
2018-07-31T17:04:25.131Z,10.60
2018-07-31T17:06:55.840Z,11.23
2018-07-31T17:09:26.562Z,14.83
2018-07-31T17:11:57.685Z,14.83
2018-07-31T17:14:28.451Z,10.57
2018-07-31T17:16:59.237Z,13.87
2018-07-31T17:19:30.075Z,17.57
2018-07-31T17:22:00.846Z,13.23
2018-07-31T17:24:31.831Z,17.33
2018-07-31T17:27:02.552Z,13.10
2018-07-31T17:29:33.224Z,12.40
2018-07-31T17:32:04.048Z,14.63
2018-07-31T17:34:35.959Z,20.37
2018-07-31T17:37:07.945Z,19.07
2018-07-31T17:39:44.363Z,15.50
2018-07-31T17:42:15.471Z,21.13
2018-07-31T17:44:48.026Z,14.50
2018-07-31T17:47:18.895Z,15.37
2018-07-31T17:49:49.761Z,21.67
2018-07-31T17:52:23.976Z,13.80
2018-07-31T17:54:54.747Z,14.80
2018-07-31T17:57:25.626Z,22.07
2018-07-31T17:59:57.175Z,19.27
2018-07-31T18:02:30.520Z,22.50
2018-07-31T18:05:03.011Z,15.90
2018-07-31T18:07:33.824Z,21.50
2018-07-31T18:10:05.055Z,18.33
2018-07-31T18:12:36.413Z,28.00
2018-07-31T18:15:07.824Z,22.57
2018-07-31T18:17:40.290Z,24.50
2018-07-31T18:20:11.930Z,27.27
2018-07-31T18:22:42.889Z,14.87
2018-07-31T18:25:16.919Z,25.23
2018-07-31T18:27:48.798Z,22.00
2018-07-31T18:30:19.836Z,21.93
2018-07-31T18:32:51.543Z,22.10
2018-07-31T18:35:25.232Z,17.23
2018-07-31T18:37:56.713Z,22.50
2018-07-31T18:40:27.818Z,16.90
2018-07-31T18:42:58.691Z,17.43
2018-07-31T18:45:29.802Z,22.47
2018-07-31T18:48:00.907Z,19.73
2018-07-31T18:50:32.991Z,17.97
2018-07-31T18:53:05.561Z,18.37
2018-07-31T18:55:36.848Z,18.23
2018-07-31T18:58:07.973Z,16.83
2018-07-31T19:00:40.263Z,27.03
2018-07-31T19:03:12.270Z,21.90
2018-07-31T19:05:44.280Z,22.30
2018-07-31T19:08:16.876Z,20.07
2018-07-31T19:10:48.516Z,21.10
2018-07-31T19:13:19.455Z,26.13
2018-07-31T19:15:51.101Z,28.20
2018-07-31T19:18:22.486Z,20.40
2018-07-31T19:20:54.413Z,17.30
2018-07-31T19:23:25.366Z,24.97
2018-07-31T19:25:56.635Z,23.53
2018-07-31T19:28:27.639Z,17.57
2018-07-31T19:30:59.365Z,16.13
2018-07-31T19:33:31.217Z,14.83
2018-07-31T19:36:05.670Z,19.00
2018-07-31T19:38:37.589Z,17.90
2018-07-31T19:41:08.787Z,18.23
2018-07-31T19:43:39.690Z,14.73
2018-07-31T19:46:10.689Z,22.40
2018-07-31T19:48:42.985Z,15.70
2018-07-31T19:51:15.444Z,27.93
2018-07-31T19:53:47.254Z,18.27
2018-07-31T19:56:18.381Z,15.77
2018-07-31T19:58:49.275Z,16.87
2018-07-31T20:01:20.659Z,19.03
2018-07-31T20:03:51.564Z,20.93
2018-07-31T20:06:23.560Z,23.83
2018-07-31T20:08:56.525Z,13.27
2018-07-31T20:11:28.361Z,14.50
2018-07-31T20:13:59.831Z,15.60
2018-07-31T20:16:31.942Z,16.60
2018-07-31T20:19:04.755Z,14.00
2018-07-31T20:21:36.014Z,14.90
2018-07-31T20:24:07.169Z,17.97
2018-07-31T20:26:38.366Z,20.40
2018-07-31T20:29:09.663Z,15.27
2018-07-31T20:31:41.296Z,14.70
2018-07-31T20:34:13.473Z,17.90
2018-07-31T20:36:44.629Z,14.60
2018-07-31T20:39:16.723Z,16.43
2018-07-31T20:41:48.017Z,16.33
2018-07-31T20:44:19.404Z,22.40
2018-07-31T20:46:50.390Z,15.47
2018-07-31T20:49:21.247Z,16.27
2018-07-31T20:51:52.429Z,22.10
2018-07-31T20:54:23.426Z,19.10
2018-07-31T20:56:54.522Z,18.40
2018-07-31T20:59:25.601Z,29.57
2018-07-31T21:01:56.447Z,23.57
2018-07-31T21:04:27.703Z,18.00
2018-07-31T21:06:58.911Z,18.00
2018-07-31T21:09:30.057Z,18.77
2018-07-31T21:12:01.920Z,17.23
2018-07-31T21:14:33.966Z,22.23
2018-07-31T21:17:04.839Z,19.07
2018-07-31T21:19:37.493Z,18.33
2018-07-31T21:22:09.598Z,19.00
2018-07-31T21:24:41.095Z,27.60
2018-07-31T21:27:12.121Z,15.80
2018-07-31T21:29:44.149Z,17.27
2018-07-31T21:32:16.410Z,20.30
2018-07-31T21:34:47.915Z,18.23
2018-07-31T21:37:20.730Z,14.07
2018-07-31T21:39:52.536Z,16.13
2018-07-31T21:42:26.024Z,17.13
2018-07-31T21:44:57.453Z,18.10
2018-07-31T21:47:31.285Z,17.33
2018-07-31T21:50:04.058Z,17.70
2018-07-31T21:52:36.254Z,15.10
2018-07-31T21:55:07.771Z,20.87
2018-07-31T22:06:39.159Z,13.73
2018-07-31T22:09:10.771Z,14.03
2018-07-31T22:11:42.446Z,13.60
2018-07-31T22:14:13.479Z,16.27
2018-07-31T22:16:45.597Z,14.37
2018-07-31T22:19:18.507Z,13.83
2018-07-31T22:21:50.130Z,15.73
2018-07-31T22:24:22.225Z,13.60
2018-07-31T22:26:54.181Z,14.13
2018-07-31T22:29:25.620Z,13.77
2018-07-31T22:31:57.202Z,13.93
2018-07-31T22:34:28.241Z,15.70
2018-07-31T22:36:59.595Z,16.17
2018-07-31T22:39:33.178Z,16.17
2018-07-31T22:42:07.779Z,18.10
2018-07-31T22:44:40.857Z,15.03
2018-07-31T22:47:13.802Z,17.30
2018-07-31T22:49:46.053Z,18.77
2018-07-31T22:52:21.200Z,17.47
2018-07-31T22:54:55.039Z,36.33
2018-07-31T22:57:27.282Z,19.60
2018-07-31T22:59:59.081Z,19.63
2018-07-31T23:02:30.440Z,17.03
2018-07-31T23:05:04.654Z,16.53
2018-07-31T23:07:38.573Z,18.47
2018-07-31T23:10:10.270Z,22.03
2018-07-31T23:12:41.711Z,15.40
2018-07-31T23:15:14.786Z,16.60
2018-07-31T23:17:47.229Z,18.13
2018-07-31T23:20:19.192Z,16.30
2018-07-31T23:22:53.207Z,20.13
2018-07-31T23:25:27.043Z,16.63
2018-07-31T23:28:00.163Z,19.77
2018-07-31T23:30:32.945Z,18.97
2018-07-31T23:33:07.569Z,17.20
2018-07-31T23:35:42.376Z,16.33
2018-07-31T23:38:17.517Z,19.43
2018-07-31T23:40:51.344Z,22.47
2018-07-31T23:43:24.744Z,26.80
2018-07-31T23:45:59.026Z,22.73
2018-07-31T23:48:32.824Z,20.20
2018-07-31T23:51:08.053Z,18.90
2018-07-31T23:53:44.040Z,20.80
2018-07-31T23:56:18.463Z,22.60
2018-07-31T23:58:52.593Z,23.80
